sensor_id;sensor_type;location;lat;lon;timestamp;P1;durP1;ratioP1;P2;durP2;ratioP2
46815;SDS011;32787;53.316;8.670;2023-02-24T00:01:41;11.68;;;1.52;;
46815;SDS011;32787;53.316;8.670;2023-02-24T00:04:13;8.68;;;1.27;;
46815;SDS011;32787;53.316;8.670;2023-02-24T00:06:39;10.13;;;1.80;;
46815;SDS011;32787;53.316;8.670;2023-02-24T00:09:15;14.18;;;2.55;;
46815;SDS011;32787;53.316;8.670;2023-02-24T00:11:44;17.15;;;1.58;;
46815;SDS011;32787;53.316;8.670;2023-02-24T00:14:13;11.65;;;1.70;;
46815;SDS011;32787;53.316;8.670;2023-02-24T00:16:40;14.68;;;1.52;;
46815;SDS011;32787;53.316;8.670;2023-02-24T00:19:07;7.13;;;1.40;;
46815;SDS011;32787;53.316;8.670;2023-02-24T00:21:34;10.50;;;1.67;;
46815;SDS011;32787;53.316;8.670;2023-02-24T00:24:00;11.90;;;1.75;;
46815;SDS011;32787;53.316;8.670;2023-02-24T00:26:26;15.50;;;1.75;;
46815;SDS011;32787;53.316;8.670;2023-02-24T00:28:54;13.68;;;1.80;;
46815;SDS011;32787;53.316;8.670;2023-02-24T00:31:21;8.85;;;1.50;;
46815;SDS011;32787;53.316;8.670;2023-02-24T00:33:47;10.30;;;1.75;;
46815;SDS011;32787;53.316;8.670;2023-02-24T00:36:15;12.20;;;1.83;;
46815;SDS011;32787;53.316;8.670;2023-02-24T00:38:47;11.23;;;1.88;;
46815;SDS011;32787;53.316;8.670;2023-02-24T00:41:16;9.70;;;1.40;;
46815;SDS011;32787;53.316;8.670;2023-02-24T00:43:44;18.10;;;2.75;;
46815;SDS011;32787;53.316;8.670;2023-02-24T00:46:14;12.88;;;1.73;;
46815;SDS011;32787;53.316;8.670;2023-02-24T00:48:42;6.05;;;1.30;;
46815;SDS011;32787;53.316;8.670;2023-02-24T00:51:12;14.98;;;3.00;;
46815;SDS011;32787;53.316;8.670;2023-02-24T00:53:47;7.97;;;1.50;;
46815;SDS011;32787;53.316;8.670;2023-02-24T00:56:14;5.65;;;1.20;;
46815;SDS011;32787;53.316;8.670;2023-02-24T00:58:41;8.05;;;1.40;;
46815;SDS011;32787;53.316;8.670;2023-02-24T01:01:19;9.18;;;1.50;;
46815;SDS011;32787;53.316;8.670;2023-02-24T01:03:47;7.50;;;1.08;;
46815;SDS011;32787;53.316;8.670;2023-02-24T01:06:14;11.98;;;1.50;;
46815;SDS011;32787;53.316;8.670;2023-02-24T01:08:44;10.80;;;1.25;;
46815;SDS011;32787;53.316;8.670;2023-02-24T01:11:14;16.30;;;2.17;;
46815;SDS011;32787;53.316;8.670;2023-02-24T01:14:04;8.40;;;1.42;;
46815;SDS011;32787;53.316;8.670;2023-02-24T01:16:34;10.82;;;1.27;;
46815;SDS011;32787;53.316;8.670;2023-02-24T01:19:01;11.60;;;1.70;;
46815;SDS011;32787;53.316;8.670;2023-02-24T01:21:27;10.73;;;1.30;;
46815;SDS011;32787;53.316;8.670;2023-02-24T01:23:53;9.45;;;1.63;;
46815;SDS011;32787;53.316;8.670;2023-02-24T01:26:19;14.85;;;1.88;;
46815;SDS011;32787;53.316;8.670;2023-02-24T01:28:45;8.35;;;2.10;;
46815;SDS011;32787;53.316;8.670;2023-02-24T01:31:12;10.02;;;1.95;;
46815;SDS011;32787;53.316;8.670;2023-02-24T01:33:40;12.82;;;2.08;;
46815;SDS011;32787;53.316;8.670;2023-02-24T01:36:19;10.65;;;1.20;;
46815;SDS011;32787;53.316;8.670;2023-02-24T01:38:47;18.42;;;1.83;;
46815;SDS011;32787;53.316;8.670;2023-02-24T01:41:20;13.25;;;1.52;;
46815;SDS011;32787;53.316;8.670;2023-02-24T01:43:58;13.65;;;1.92;;
46815;SDS011;32787;53.316;8.670;2023-02-24T01:46:25;10.48;;;1.67;;
46815;SDS011;32787;53.316;8.670;2023-02-24T01:48:57;8.10;;;1.30;;
46815;SDS011;32787;53.316;8.670;2023-02-24T01:51:33;8.80;;;1.67;;
46815;SDS011;32787;53.316;8.670;2023-02-24T01:54:03;8.98;;;1.73;;
46815;SDS011;32787;53.316;8.670;2023-02-24T01:56:32;9.88;;;1.50;;
46815;SDS011;32787;53.316;8.670;2023-02-24T01:58:57;8.23;;;1.52;;
46815;SDS011;32787;53.316;8.670;2023-02-24T02:01:25;8.65;;;1.38;;
46815;SDS011;32787;53.316;8.670;2023-02-24T02:03:52;10.35;;;1.63;;
46815;SDS011;32787;53.316;8.670;2023-02-24T02:06:24;6.28;;;0.98;;
46815;SDS011;32787;53.316;8.670;2023-02-24T02:08:51;8.32;;;1.20;;
46815;SDS011;32787;53.316;8.670;2023-02-24T02:11:17;9.38;;;1.50;;
46815;SDS011;32787;53.316;8.670;2023-02-24T02:13:44;10.73;;;1.55;;
46815;SDS011;32787;53.316;8.670;2023-02-24T02:19:07;13.30;;;1.50;;
46815;SDS011;32787;53.316;8.670;2023-02-24T02:24:59;5.60;;;1.20;;
46815;SDS011;32787;53.316;8.670;2023-02-24T02:27:49;8.15;;;1.52;;
46815;SDS011;32787;53.316;8.670;2023-02-24T02:35:57;8.43;;;1.50;;
46815;SDS011;32787;53.316;8.670;2023-02-24T02:38:40;12.27;;;2.28;;
46815;SDS011;32787;53.316;8.670;2023-02-24T02:41:17;9.43;;;1.20;;
46815;SDS011;32787;53.316;8.670;2023-02-24T02:44:06;8.65;;;1.33;;
46815;SDS011;32787;53.316;8.670;2023-02-24T02:46:46;8.13;;;1.40;;
46815;SDS011;32787;53.316;8.670;2023-02-24T02:49:48;10.50;;;1.65;;
46815;SDS011;32787;53.316;8.670;2023-02-24T02:52:31;11.07;;;1.77;;
46815;SDS011;32787;53.316;8.670;2023-02-24T02:55:10;7.47;;;1.40;;
46815;SDS011;32787;53.316;8.670;2023-02-24T02:57:57;7.70;;;1.02;;
46815;SDS011;32787;53.316;8.670;2023-02-24T03:00:26;8.30;;;1.48;;
46815;SDS011;32787;53.316;8.670;2023-02-24T03:03:00;7.75;;;1.27;;
46815;SDS011;32787;53.316;8.670;2023-02-24T03:05:36;6.47;;;1.20;;
46815;SDS011;32787;53.316;8.670;2023-02-24T03:08:10;16.30;;;1.73;;
46815;SDS011;32787;53.316;8.670;2023-02-24T03:10:46;9.48;;;1.40;;
46815;SDS011;32787;53.316;8.670;2023-02-24T03:13:17;12.77;;;1.20;;
46815;SDS011;32787;53.316;8.670;2023-02-24T03:15:47;9.77;;;1.50;;
46815;SDS011;32787;53.316;8.670;2023-02-24T03:18:20;7.27;;;1.47;;
46815;SDS011;32787;53.316;8.670;2023-02-24T03:20:53;8.90;;;1.50;;
46815;SDS011;32787;53.316;8.670;2023-02-24T03:23:31;11.05;;;1.70;;
46815;SDS011;32787;53.316;8.670;2023-02-24T03:26:03;7.53;;;1.17;;
46815;SDS011;32787;53.316;8.670;2023-02-24T03:28:53;6.60;;;1.38;;
46815;SDS011;32787;53.316;8.670;2023-02-24T03:31:41;8.10;;;1.40;;
46815;SDS011;32787;53.316;8.670;2023-02-24T03:34:09;9.55;;;1.38;;
46815;SDS011;32787;53.316;8.670;2023-02-24T03:36:40;7.65;;;1.30;;
46815;SDS011;32787;53.316;8.670;2023-02-24T03:39:07;10.93;;;1.42;;
46815;SDS011;32787;53.316;8.670;2023-02-24T03:41:41;14.07;;;2.22;;
46815;SDS011;32787;53.316;8.670;2023-02-24T03:44:18;9.55;;;1.48;;
46815;SDS011;32787;53.316;8.670;2023-02-24T03:46:43;10.27;;;1.40;;
46815;SDS011;32787;53.316;8.670;2023-02-24T03:49:09;7.18;;;1.05;;
46815;SDS011;32787;53.316;8.670;2023-02-24T03:51:36;7.45;;;1.60;;
46815;SDS011;32787;53.316;8.670;2023-02-24T04:02:45;9.50;;;1.92;;
46815;SDS011;32787;53.316;8.670;2023-02-24T04:05:16;11.52;;;2.17;;
46815;SDS011;32787;53.316;8.670;2023-02-24T04:07:52;9.38;;;1.23;;
46815;SDS011;32787;53.316;8.670;2023-02-24T04:10:30;7.90;;;1.70;;
46815;SDS011;32787;53.316;8.670;2023-02-24T04:13:22;11.07;;;2.17;;
46815;SDS011;32787;53.316;8.670;2023-02-24T04:16:13;7.43;;;1.38;;
46815;SDS011;32787;53.316;8.670;2023-02-24T04:18:51;7.18;;;1.50;;
46815;SDS011;32787;53.316;8.670;2023-02-24T04:21:22;9.70;;;1.58;;
46815;SDS011;32787;53.316;8.670;2023-02-24T04:23:52;9.10;;;2.05;;
46815;SDS011;32787;53.316;8.670;2023-02-24T04:26:18;4.80;;;1.25;;
46815;SDS011;32787;53.316;8.670;2023-02-24T04:28:48;11.38;;;2.10;;
46815;SDS011;32787;53.316;8.670;2023-02-24T04:31:15;10.73;;;1.63;;
46815;SDS011;32787;53.316;8.670;2023-02-24T04:33:43;10.65;;;2.05;;
46815;SDS011;32787;53.316;8.670;2023-02-24T04:36:14;8.25;;;1.20;;
46815;SDS011;32787;53.316;8.670;2023-02-24T04:38:41;12.07;;;2.10;;
46815;SDS011;32787;53.316;8.670;2023-02-24T04:41:06;16.15;;;2.00;;
46815;SDS011;32787;53.316;8.670;2023-02-24T04:43:32;9.52;;;1.48;;
46815;SDS011;32787;53.316;8.670;2023-02-24T04:45:59;11.43;;;1.83;;
46815;SDS011;32787;53.316;8.670;2023-02-24T04:48:31;9.35;;;1.60;;
46815;SDS011;32787;53.316;8.670;2023-02-24T04:50:58;15.88;;;2.03;;
46815;SDS011;32787;53.316;8.670;2023-02-24T04:53:26;14.32;;;1.63;;
46815;SDS011;32787;53.316;8.670;2023-02-24T04:55:52;9.50;;;1.38;;
46815;SDS011;32787;53.316;8.670;2023-02-24T04:58:20;7.97;;;1.48;;
46815;SDS011;32787;53.316;8.670;2023-02-24T05:00:51;10.98;;;2.17;;
46815;SDS011;32787;53.316;8.670;2023-02-24T05:03:17;7.75;;;1.60;;
46815;SDS011;32787;53.316;8.670;2023-02-24T05:05:52;9.70;;;1.45;;
46815;SDS011;32787;53.316;8.670;2023-02-24T05:08:21;10.52;;;1.60;;
46815;SDS011;32787;53.316;8.670;2023-02-24T05:10:47;9.30;;;1.38;;
46815;SDS011;32787;53.316;8.670;2023-02-24T05:13:15;11.48;;;1.63;;
46815;SDS011;32787;53.316;8.670;2023-02-24T05:15:44;6.95;;;1.50;;
46815;SDS011;32787;53.316;8.670;2023-02-24T05:18:15;5.55;;;1.40;;
46815;SDS011;32787;53.316;8.670;2023-02-24T05:20:45;13.13;;;1.85;;
46815;SDS011;32787;53.316;8.670;2023-02-24T05:23:44;8.75;;;1.90;;
46815;SDS011;32787;53.316;8.670;2023-02-24T05:26:14;7.63;;;1.27;;
46815;SDS011;32787;53.316;8.670;2023-02-24T05:28:42;8.07;;;1.33;;
46815;SDS011;32787;53.316;8.670;2023-02-24T05:31:31;11.23;;;1.80;;
46815;SDS011;32787;53.316;8.670;2023-02-24T05:33:57;10.95;;;2.00;;
46815;SDS011;32787;53.316;8.670;2023-02-24T05:36:27;11.77;;;1.85;;
46815;SDS011;32787;53.316;8.670;2023-02-24T05:38:54;10.18;;;1.60;;
46815;SDS011;32787;53.316;8.670;2023-02-24T05:41:28;12.88;;;1.80;;
46815;SDS011;32787;53.316;8.670;2023-02-24T05:44:00;10.48;;;1.50;;
46815;SDS011;32787;53.316;8.670;2023-02-24T05:46:32;8.98;;;1.60;;
46815;SDS011;32787;53.316;8.670;2023-02-24T05:49:00;15.23;;;2.00;;
46815;SDS011;32787;53.316;8.670;2023-02-24T05:51:28;9.20;;;2.03;;
46815;SDS011;32787;53.316;8.670;2023-02-24T05:54:10;7.00;;;1.42;;
46815;SDS011;32787;53.316;8.670;2023-02-24T05:56:37;10.98;;;2.20;;
46815;SDS011;32787;53.316;8.670;2023-02-24T05:59:09;8.15;;;1.80;;
46815;SDS011;32787;53.316;8.670;2023-02-24T06:01:36;14.38;;;1.90;;
46815;SDS011;32787;53.316;8.670;2023-02-24T06:04:09;9.40;;;1.35;;
46815;SDS011;32787;53.316;8.670;2023-02-24T06:06:45;8.55;;;1.60;;
46815;SDS011;32787;53.316;8.670;2023-02-24T06:09:16;6.88;;;1.60;;
46815;SDS011;32787;53.316;8.670;2023-02-24T06:11:43;17.73;;;2.50;;
46815;SDS011;32787;53.316;8.670;2023-02-24T06:14:10;11.18;;;1.88;;
46815;SDS011;32787;53.316;8.670;2023-02-24T06:16:37;8.48;;;1.98;;
46815;SDS011;32787;53.316;8.670;2023-02-24T06:19:05;10.95;;;3.50;;
46815;SDS011;32787;53.316;8.670;2023-02-24T06:21:32;10.82;;;2.28;;
46815;SDS011;32787;53.316;8.670;2023-02-24T06:23:59;10.48;;;2.10;;
46815;SDS011;32787;53.316;8.670;2023-02-24T06:26:25;15.90;;;2.25;;
46815;SDS011;32787;53.316;8.670;2023-02-24T06:28:57;13.30;;;2.00;;
46815;SDS011;32787;53.316;8.670;2023-02-24T06:31:24;10.75;;;1.50;;
46815;SDS011;32787;53.316;8.670;2023-02-24T06:33:51;8.05;;;1.83;;
46815;SDS011;32787;53.316;8.670;2023-02-24T06:36:18;8.38;;;1.60;;
46815;SDS011;32787;53.316;8.670;2023-02-24T06:38:45;9.98;;;1.98;;
46815;SDS011;32787;53.316;8.670;2023-02-24T06:41:11;11.02;;;1.90;;
46815;SDS011;32787;53.316;8.670;2023-02-24T06:43:37;7.95;;;1.80;;
46815;SDS011;32787;53.316;8.670;2023-02-24T06:46:07;8.25;;;2.08;;
46815;SDS011;32787;53.316;8.670;2023-02-24T06:48:35;15.05;;;2.10;;
46815;SDS011;32787;53.316;8.670;2023-02-24T06:51:09;8.30;;;1.48;;
46815;SDS011;32787;53.316;8.670;2023-02-24T06:53:39;11.10;;;1.80;;
46815;SDS011;32787;53.316;8.670;2023-02-24T06:56:10;13.27;;;2.20;;
46815;SDS011;32787;53.316;8.670;2023-02-24T06:58:44;13.48;;;2.10;;
46815;SDS011;32787;53.316;8.670;2023-02-24T07:01:12;9.70;;;2.05;;
46815;SDS011;32787;53.316;8.670;2023-02-24T07:03:40;9.60;;;2.47;;
46815;SDS011;32787;53.316;8.670;2023-02-24T07:06:11;12.52;;;2.63;;
46815;SDS011;32787;53.316;8.670;2023-02-24T07:08:50;9.65;;;2.33;;
46815;SDS011;32787;53.316;8.670;2023-02-24T07:11:17;11.25;;;2.70;;
46815;SDS011;32787;53.316;8.670;2023-02-24T07:13:46;16.65;;;2.50;;
46815;SDS011;32787;53.316;8.670;2023-02-24T07:16:14;14.85;;;3.10;;
46815;SDS011;32787;53.316;8.670;2023-02-24T07:18:41;16.85;;;3.10;;
46815;SDS011;32787;53.316;8.670;2023-02-24T07:21:08;12.73;;;3.08;;
46815;SDS011;32787;53.316;8.670;2023-02-24T07:23:40;9.95;;;2.30;;
46815;SDS011;32787;53.316;8.670;2023-02-24T07:26:09;14.48;;;3.20;;
46815;SDS011;32787;53.316;8.670;2023-02-24T07:28:37;14.40;;;3.00;;
46815;SDS011;32787;53.316;8.670;2023-02-24T07:31:10;6.60;;;2.28;;
46815;SDS011;32787;53.316;8.670;2023-02-24T07:33:38;17.05;;;2.92;;
46815;SDS011;32787;53.316;8.670;2023-02-24T07:36:05;8.10;;;2.40;;
46815;SDS011;32787;53.316;8.670;2023-02-24T07:38:37;14.27;;;2.22;;
46815;SDS011;32787;53.316;8.670;2023-02-24T07:41:03;13.32;;;2.22;;
46815;SDS011;32787;53.316;8.670;2023-02-24T07:43:35;11.40;;;2.35;;
46815;SDS011;32787;53.316;8.670;2023-02-24T07:46:05;11.55;;;2.70;;
46815;SDS011;32787;53.316;8.670;2023-02-24T07:48:36;15.05;;;2.42;;
46815;SDS011;32787;53.316;8.670;2023-02-24T07:51:12;10.45;;;2.40;;
46815;SDS011;32787;53.316;8.670;2023-02-24T07:53:39;10.55;;;2.20;;
46815;SDS011;32787;53.316;8.670;2023-02-24T07:56:09;14.50;;;2.85;;
46815;SDS011;32787;53.316;8.670;2023-02-24T07:58:45;12.65;;;2.55;;
46815;SDS011;32787;53.316;8.670;2023-02-24T08:04:50;10.77;;;2.60;;
46815;SDS011;32787;53.316;8.670;2023-02-24T08:07:19;10.63;;;2.33;;
46815;SDS011;32787;53.316;8.670;2023-02-24T08:09:48;12.23;;;2.63;;
46815;SDS011;32787;53.316;8.670;2023-02-24T08:12:33;11.48;;;2.10;;
46815;SDS011;32787;53.316;8.670;2023-02-24T08:14:59;14.35;;;2.78;;
46815;SDS011;32787;53.316;8.670;2023-02-24T08:17:33;11.77;;;2.67;;
46815;SDS011;32787;53.316;8.670;2023-02-24T08:19:59;9.93;;;2.30;;
46815;SDS011;32787;53.316;8.670;2023-02-24T08:22:45;12.60;;;3.10;;
46815;SDS011;32787;53.316;8.670;2023-02-24T08:25:16;9.20;;;2.70;;
46815;SDS011;32787;53.316;8.670;2023-02-24T08:27:43;15.32;;;3.45;;
46815;SDS011;32787;53.316;8.670;2023-02-24T08:30:20;13.88;;;4.40;;
46815;SDS011;32787;53.316;8.670;2023-02-24T08:32:53;17.05;;;4.68;;
46815;SDS011;32787;53.316;8.670;2023-02-24T08:37:52;11.55;;;3.70;;
46815;SDS011;32787;53.316;8.670;2023-02-24T08:40:24;13.70;;;4.32;;
46815;SDS011;32787;53.316;8.670;2023-02-24T08:45:58;13.32;;;4.15;;
46815;SDS011;32787;53.316;8.670;2023-02-24T08:48:55;13.07;;;4.55;;
46815;SDS011;32787;53.316;8.670;2023-02-24T08:51:29;16.45;;;4.13;;
46815;SDS011;32787;53.316;8.670;2023-02-24T08:54:05;13.82;;;4.30;;
46815;SDS011;32787;53.316;8.670;2023-02-24T08:56:35;12.00;;;3.80;;
46815;SDS011;32787;53.316;8.670;2023-02-24T08:59:07;17.45;;;5.93;;
46815;SDS011;32787;53.316;8.670;2023-02-24T09:01:53;12.40;;;3.95;;
46815;SDS011;32787;53.316;8.670;2023-02-24T09:04:40;13.13;;;3.85;;
46815;SDS011;32787;53.316;8.670;2023-02-24T09:07:11;11.40;;;4.00;;
46815;SDS011;32787;53.316;8.670;2023-02-24T09:09:39;9.50;;;3.45;;
46815;SDS011;32787;53.316;8.670;2023-02-24T09:12:06;17.35;;;4.75;;
46815;SDS011;32787;53.316;8.670;2023-02-24T09:14:34;14.40;;;4.68;;
46815;SDS011;32787;53.316;8.670;2023-02-24T09:17:04;13.05;;;4.20;;
46815;SDS011;32787;53.316;8.670;2023-02-24T09:22:16;11.65;;;4.38;;
46815;SDS011;32787;53.316;8.670;2023-02-24T09:25:21;15.97;;;4.50;;
46815;SDS011;32787;53.316;8.670;2023-02-24T09:30:26;13.88;;;4.38;;
46815;SDS011;32787;53.316;8.670;2023-02-24T09:33:09;13.32;;;5.50;;
46815;SDS011;32787;53.316;8.670;2023-02-24T09:35:46;14.95;;;5.38;;
46815;SDS011;32787;53.316;8.670;2023-02-24T09:44:52;15.38;;;4.93;;
46815;SDS011;32787;53.316;8.670;2023-02-24T09:47:28;17.83;;;5.60;;
46815;SDS011;32787;53.316;8.670;2023-02-24T09:52:43;12.50;;;5.15;;
46815;SDS011;32787;53.316;8.670;2023-02-24T10:03:59;16.17;;;6.07;;
46815;SDS011;32787;53.316;8.670;2023-02-24T10:06:39;12.32;;;5.30;;
46815;SDS011;32787;53.316;8.670;2023-02-24T10:12:05;15.40;;;5.73;;
46815;SDS011;32787;53.316;8.670;2023-02-24T10:14:36;14.80;;;5.75;;
46815;SDS011;32787;53.316;8.670;2023-02-24T10:17:22;17.13;;;6.03;;
46815;SDS011;32787;53.316;8.670;2023-02-24T10:20:11;16.85;;;6.90;;
46815;SDS011;32787;53.316;8.670;2023-02-24T10:22:51;15.52;;;6.32;;
46815;SDS011;32787;53.316;8.670;2023-02-24T10:25:45;13.13;;;6.45;;
46815;SDS011;32787;53.316;8.670;2023-02-24T10:28:26;18.08;;;7.18;;
46815;SDS011;32787;53.316;8.670;2023-02-24T10:33:35;19.23;;;7.22;;
46815;SDS011;32787;53.316;8.670;2023-02-24T10:36:11;15.30;;;6.78;;
46815;SDS011;32787;53.316;8.670;2023-02-24T10:38:43;15.15;;;6.88;;
46815;SDS011;32787;53.316;8.670;2023-02-24T10:41:09;20.52;;;6.72;;
46815;SDS011;32787;53.316;8.670;2023-02-24T10:43:36;22.65;;;7.30;;
46815;SDS011;32787;53.316;8.670;2023-02-24T10:46:17;17.45;;;7.82;;
46815;SDS011;32787;53.316;8.670;2023-02-24T10:48:55;16.00;;;6.88;;
46815;SDS011;32787;53.316;8.670;2023-02-24T10:51:27;18.15;;;6.40;;
46815;SDS011;32787;53.316;8.670;2023-02-24T10:56:57;16.25;;;6.68;;
46815;SDS011;32787;53.316;8.670;2023-02-24T10:59:52;16.83;;;7.22;;
46815;SDS011;32787;53.316;8.670;2023-02-24T11:02:44;16.63;;;6.90;;
46815;SDS011;32787;53.316;8.670;2023-02-24T11:05:33;19.25;;;7.13;;
46815;SDS011;32787;53.316;8.670;2023-02-24T11:11:00;18.65;;;7.15;;
46815;SDS011;32787;53.316;8.670;2023-02-24T11:13:31;16.98;;;6.88;;
46815;SDS011;32787;53.316;8.670;2023-02-24T11:16:16;19.80;;;6.65;;
46815;SDS011;32787;53.316;8.670;2023-02-24T11:19:01;16.60;;;6.82;;
46815;SDS011;32787;53.316;8.670;2023-02-24T11:21:30;17.20;;;6.93;;
46815;SDS011;32787;53.316;8.670;2023-02-24T11:23:58;12.80;;;6.55;;
46815;SDS011;32787;53.316;8.670;2023-02-24T11:26:31;15.10;;;7.20;;
46815;SDS011;32787;53.316;8.670;2023-02-24T11:29:02;20.30;;;7.45;;
46815;SDS011;32787;53.316;8.670;2023-02-24T11:39:57;13.50;;;6.38;;
46815;SDS011;32787;53.316;8.670;2023-02-24T11:42:28;15.90;;;7.43;;
46815;SDS011;32787;53.316;8.670;2023-02-24T11:45:03;15.27;;;6.18;;
46815;SDS011;32787;53.316;8.670;2023-02-24T11:47:47;12.60;;;6.43;;
46815;SDS011;32787;53.316;8.670;2023-02-24T11:52:49;18.70;;;7.00;;
46815;SDS011;32787;53.316;8.670;2023-02-24T11:55:36;16.80;;;7.10;;
46815;SDS011;32787;53.316;8.670;2023-02-24T11:58:16;17.42;;;7.45;;
46815;SDS011;32787;53.316;8.670;2023-02-24T12:03:32;17.77;;;6.90;;
46815;SDS011;32787;53.316;8.670;2023-02-24T12:06:04;12.70;;;6.17;;
46815;SDS011;32787;53.316;8.670;2023-02-24T12:08:38;10.82;;;6.22;;
46815;SDS011;32787;53.316;8.670;2023-02-24T12:13:50;13.18;;;6.38;;
46815;SDS011;32787;53.316;8.670;2023-02-24T12:16:21;16.48;;;6.10;;
46815;SDS011;32787;53.316;8.670;2023-02-24T12:18:54;14.32;;;6.47;;
46815;SDS011;32787;53.316;8.670;2023-02-24T12:21:27;16.92;;;6.05;;
46815;SDS011;32787;53.316;8.670;2023-02-24T12:24:01;11.70;;;5.60;;
46815;SDS011;32787;53.316;8.670;2023-02-24T12:26:56;18.83;;;7.13;;
46815;SDS011;32787;53.316;8.670;2023-02-24T12:29:46;12.52;;;5.90;;
46815;SDS011;32787;53.316;8.670;2023-02-24T12:35:36;17.08;;;6.60;;
46815;SDS011;32787;53.316;8.670;2023-02-24T12:41:29;12.90;;;6.18;;
46815;SDS011;32787;53.316;8.670;2023-02-24T12:47:09;19.10;;;6.22;;
46815;SDS011;32787;53.316;8.670;2023-02-24T12:52:38;13.45;;;5.47;;
46815;SDS011;32787;53.316;8.670;2023-02-24T13:03:28;20.02;;;5.28;;
46815;SDS011;32787;53.316;8.670;2023-02-24T13:09:10;19.95;;;4.65;;
46815;SDS011;32787;53.316;8.670;2023-02-24T13:11:51;13.60;;;3.50;;
46815;SDS011;32787;53.316;8.670;2023-02-24T13:17:29;16.63;;;4.60;;
46815;SDS011;32787;53.316;8.670;2023-02-24T13:19:51;21.17;;;4.05;;
46815;SDS011;32787;53.316;8.670;2023-02-24T13:27:33;20.85;;;2.55;;
46815;SDS011;32787;53.316;8.670;2023-02-24T13:33:28;18.23;;;2.65;;
46815;SDS011;32787;53.316;8.670;2023-02-24T13:35:43;21.35;;;2.88;;
46815;SDS011;32787;53.316;8.670;2023-02-24T13:38:33;16.30;;;2.47;;
46815;SDS011;32787;53.316;8.670;2023-02-24T13:41:08;12.70;;;2.17;;
46815;SDS011;32787;53.316;8.670;2023-02-24T13:46:22;19.48;;;2.70;;
46815;SDS011;32787;53.316;8.670;2023-02-24T13:51:48;19.50;;;2.58;;
46815;SDS011;32787;53.316;8.670;2023-02-24T13:54:22;14.55;;;2.08;;
46815;SDS011;32787;53.316;8.670;2023-02-24T13:57:15;16.45;;;2.33;;
46815;SDS011;32787;53.316;8.670;2023-02-24T14:02:36;20.40;;;2.78;;
46815;SDS011;32787;53.316;8.670;2023-02-24T14:05:07;17.00;;;2.95;;
46815;SDS011;32787;53.316;8.670;2023-02-24T14:07:40;14.30;;;2.08;;
46815;SDS011;32787;53.316;8.670;2023-02-24T14:10:16;16.15;;;3.13;;
46815;SDS011;32787;53.316;8.670;2023-02-24T14:12:45;21.30;;;2.80;;
46815;SDS011;32787;53.316;8.670;2023-02-24T14:15:14;13.45;;;3.25;;
46815;SDS011;32787;53.316;8.670;2023-02-24T14:17:52;12.52;;;2.35;;
46815;SDS011;32787;53.316;8.670;2023-02-24T14:20:20;15.52;;;1.60;;
46815;SDS011;32787;53.316;8.670;2023-02-24T14:22:54;13.70;;;1.88;;
46815;SDS011;32787;53.316;8.670;2023-02-24T14:25:23;10.65;;;1.75;;
46815;SDS011;32787;53.316;8.670;2023-02-24T14:27:51;11.35;;;1.67;;
46815;SDS011;32787;53.316;8.670;2023-02-24T14:33:01;8.95;;;1.25;;
46815;SDS011;32787;53.316;8.670;2023-02-24T14:35:36;9.30;;;1.13;;
46815;SDS011;32787;53.316;8.670;2023-02-24T14:38:06;5.80;;;0.93;;
46815;SDS011;32787;53.316;8.670;2023-02-24T14:40:50;7.15;;;1.27;;
46815;SDS011;32787;53.316;8.670;2023-02-24T14:43:16;6.68;;;1.00;;
46815;SDS011;32787;53.316;8.670;2023-02-24T14:45:46;6.07;;;1.08;;
46815;SDS011;32787;53.316;8.670;2023-02-24T14:48:20;14.00;;;0.88;;
46815;SDS011;32787;53.316;8.670;2023-02-24T14:51:10;5.07;;;0.80;;
46815;SDS011;32787;53.316;8.670;2023-02-24T14:53:56;7.30;;;0.75;;
46815;SDS011;32787;53.316;8.670;2023-02-24T14:59:01;6.28;;;0.77;;
46815;SDS011;32787;53.316;8.670;2023-02-24T15:01:33;5.78;;;0.80;;
46815;SDS011;32787;53.316;8.670;2023-02-24T15:04:11;9.63;;;1.30;;
46815;SDS011;32787;53.316;8.670;2023-02-24T15:06:39;2.65;;;0.68;;
46815;SDS011;32787;53.316;8.670;2023-02-24T15:09:11;8.13;;;0.88;;
46815;SDS011;32787;53.316;8.670;2023-02-24T15:11:45;6.43;;;0.68;;
46815;SDS011;32787;53.316;8.670;2023-02-24T15:16:54;3.40;;;0.70;;
46815;SDS011;32787;53.316;8.670;2023-02-24T15:19:31;5.47;;;0.60;;
46815;SDS011;32787;53.316;8.670;2023-02-24T15:22:02;9.80;;;0.85;;
46815;SDS011;32787;53.316;8.670;2023-02-24T15:24:41;11.18;;;1.23;;
46815;SDS011;32787;53.316;8.670;2023-02-24T15:29:38;10.68;;;1.13;;
46815;SDS011;32787;53.316;8.670;2023-02-24T15:32:04;13.27;;;1.25;;
46815;SDS011;32787;53.316;8.670;2023-02-24T15:34:43;10.68;;;1.58;;
46815;SDS011;32787;53.316;8.670;2023-02-24T15:39:47;6.45;;;1.17;;
46815;SDS011;32787;53.316;8.670;2023-02-24T15:45:01;9.30;;;1.23;;
46815;SDS011;32787;53.316;8.670;2023-02-24T15:47:28;10.93;;;1.25;;
46815;SDS011;32787;53.316;8.670;2023-02-24T15:50:04;11.60;;;2.47;;
46815;SDS011;32787;53.316;8.670;2023-02-24T15:52:30;11.05;;;3.63;;
46815;SDS011;32787;53.316;8.670;2023-02-24T15:54:56;5.57;;;0.98;;
46815;SDS011;32787;53.316;8.670;2023-02-24T15:57:24;10.45;;;1.48;;
46815;SDS011;32787;53.316;8.670;2023-02-24T15:59:50;8.93;;;1.20;;
46815;SDS011;32787;53.316;8.670;2023-02-24T16:02:17;9.00;;;1.38;;
46815;SDS011;32787;53.316;8.670;2023-02-24T16:04:44;10.77;;;1.65;;
46815;SDS011;32787;53.316;8.670;2023-02-24T16:07:18;13.68;;;1.85;;
46815;SDS011;32787;53.316;8.670;2023-02-24T16:10:03;17.00;;;2.47;;
46815;SDS011;32787;53.316;8.670;2023-02-24T16:12:33;18.08;;;1.85;;
46815;SDS011;32787;53.316;8.670;2023-02-24T16:15:03;16.80;;;1.85;;
46815;SDS011;32787;53.316;8.670;2023-02-24T16:17:35;10.90;;;2.20;;
46815;SDS011;32787;53.316;8.670;2023-02-24T16:20:04;18.48;;;2.50;;
46815;SDS011;32787;53.316;8.670;2023-02-24T16:22:34;21.88;;;2.40;;
46815;SDS011;32787;53.316;8.670;2023-02-24T16:25:00;16.80;;;2.50;;
46815;SDS011;32787;53.316;8.670;2023-02-24T16:27:25;19.45;;;3.08;;
46815;SDS011;32787;53.316;8.670;2023-02-24T16:29:53;20.75;;;2.88;;
46815;SDS011;32787;53.316;8.670;2023-02-24T16:32:19;18.23;;;3.15;;
46815;SDS011;32787;53.316;8.670;2023-02-24T16:34:47;24.55;;;4.13;;
46815;SDS011;32787;53.316;8.670;2023-02-24T16:37:23;23.80;;;2.78;;
46815;SDS011;32787;53.316;8.670;2023-02-24T16:39:51;31.23;;;3.10;;
46815;SDS011;32787;53.316;8.670;2023-02-24T16:42:17;26.50;;;4.10;;
46815;SDS011;32787;53.316;8.670;2023-02-24T16:44:43;27.15;;;4.38;;
46815;SDS011;32787;53.316;8.670;2023-02-24T16:47:11;26.45;;;3.70;;
46815;SDS011;32787;53.316;8.670;2023-02-24T16:49:41;32.08;;;4.22;;
46815;SDS011;32787;53.316;8.670;2023-02-24T16:52:06;22.45;;;2.83;;
46815;SDS011;32787;53.316;8.670;2023-02-24T16:54:32;29.65;;;3.65;;
46815;SDS011;32787;53.316;8.670;2023-02-24T16:56:58;31.65;;;3.55;;
46815;SDS011;32787;53.316;8.670;2023-02-24T16:59:23;30.88;;;4.15;;
46815;SDS011;32787;53.316;8.670;2023-02-24T17:01:53;25.08;;;3.47;;
46815;SDS011;32787;53.316;8.670;2023-02-24T17:04:19;36.67;;;4.15;;
46815;SDS011;32787;53.316;8.670;2023-02-24T17:06:46;25.73;;;4.40;;
46815;SDS011;32787;53.316;8.670;2023-02-24T17:09:12;38.35;;;3.92;;
46815;SDS011;32787;53.316;8.670;2023-02-24T17:11:39;29.35;;;3.85;;
46815;SDS011;32787;53.316;8.670;2023-02-24T17:14:08;30.70;;;4.32;;
46815;SDS011;32787;53.316;8.670;2023-02-24T17:16:40;28.05;;;3.88;;
46815;SDS011;32787;53.316;8.670;2023-02-24T17:19:07;25.17;;;4.50;;
46815;SDS011;32787;53.316;8.670;2023-02-24T17:21:32;24.23;;;3.55;;
46815;SDS011;32787;53.316;8.670;2023-02-24T17:23:58;27.33;;;3.42;;
46815;SDS011;32787;53.316;8.670;2023-02-24T17:26:24;28.88;;;4.35;;
46815;SDS011;32787;53.316;8.670;2023-02-24T17:28:50;26.17;;;4.45;;